Abere, France

12:00 AM CEST on June 28, 2017 (GMT +0200)
Chemin de Mazerolles | | Change Station

Elev 770 ft 43.31 °N, 0.30 °W | Updated 4 minutes ago

Mostly Cloudy
Mostly Cloudy
68.5 °F
Feels Like 68.5 °F
N
0.6
Wind Variable Wind from NE
Gusts 2.5 mph

Today
High -- | Low -- °F
--% Chance of Precip.
Yesterday
High -- | Low -- °F
Precip. -- in
Pressure 29.83 in
Visibility 6.2 miles
Clouds Mostly Cloudy 5400 ft
Mostly Cloudy 7600 ft
Mostly Cloudy 12000 ft
Dew Point 60 °F
Humidity 75%
Rainfall 3.28 in
Snow Depth Not available.
6:22 AM 9:45 PM
Waxing Crescent, 19% visible
METAR LFBP 272130Z AUTO VRB03KT 9999 BKN054 BKN076 BKN120 17/16 Q1010 TEMPO SHRA BKN030TCU
Pressure 29.83 in
Visibility 6.2 miles
Clouds Mostly Cloudy 5400 ft
Mostly Cloudy 7600 ft
Mostly Cloudy 12000 ft
Dew Point 60 °F
Humidity 75%
Rainfall 3.28 in
Snow Depth Not available.
6:22 AM 9:45 PM
Waxing Crescent, 19% visible
METAR LFBP 272130Z AUTO VRB03KT 9999 BKN054 BKN076 BKN120 17/16 Q1010 TEMPO SHRA BKN030TCU

Get Severe Weather Alerts

Thanks for signing up!

Be on the lookout for a verification email in your inbox.

You'll start receiving the daily forecast at 6 AM.

×

10-Day Weather Forecast

×

Almanac

Astronomy

Jun. 28, 2017 Rise Set
Actual Time
Civil Twilight
Nautical Twilight
Astronomical Twilight
Moon
Length of Visible Light
Length of Day
Tomorrow will be .
, % of the Moon is Illuminated

Today's Extremes

Country Highs Country Lows

Community

WunderPhotos

Category 6

Welcome to Category 6. This is the collective home for Weather Underground's featured writeups by Dr. Jeff Masters (right), Bob Henson (left), Chris Burt, and other regular contributors.

Nearby

Air Quality

  Air Quality AQ Index Pollutant
Not available.

Snow Depth

Station Depth Elevation

Earthquake Activity

City Distance Mag. Time & Date
Minimum magnitude displayed is 2.5.

Coastal Water Temperatures

Place Temperature

Stations

Nearby Weather Stations

Station Location Temp. Windchill Dew Point Humidity Wind Precip. Elev Updated Type